Terminal Aerodrome Forecast
Issued by NWS St Louis, MO

Home | Current Version | Previous Version | Text Only | Print | Product List | Glossary On
Versions: 1 2 3 4 5 6 7 8 9 10 11 12 13
000
FTUS43 KLSX 230200 AAA
TAFCOU
TAF AMD
KCOU 230212Z 2302/2324 31006KT P6SM FEW040 BKN250
     FM230600 34006KT P6SM SCT040 BKN120
     FM231000 02006KT P6SM BKN030
     FM231500 02010KT P6SM SCT040=

USA.gov is the U.S. government's official web portal to all federal, state and local government web resources and services.